Time;durP1;ratioP1;P1;durP2;ratioP2;P2;SDS_P1;SDS_P2;PMS_P1;PMS_P2;Temp;Humidity;BMP_temperature;BMP_pressure;BME280_temperature;BME280_humidity;BME280_pressure;Samples;Min_cycle;Max_cycle;Signal;HPM_P1;HPM_P2
2022/01/24 00:01:56;;;;;;;18.17;8.35;;;;;;;4.15;91.99;103425.56;15274697;19;20113;-67
2022/01/24 00:06:59;;;;;;;17.00;7.57;;;;;;;4.15;92.14;103417.78;15270415;19;20010;-68
2022/01/24 00:12:12;;;;;;;17.65;7.60;;;;;;;4.10;91.99;103416.44;15274942;19;20078;-68
2022/01/24 00:17:30;;;;;;;14.68;6.95;;;;;;;4.09;91.83;103406.88;15269282;19;20022;-68
2022/01/24 00:27:52;;;;;;;15.60;7.53;;;;;;;4.07;91.79;103391.19;15271604;19;20078;-68
2022/01/24 00:32:54;;;;;;;17.27;7.57;;;;;;;4.02;92.33;103388.22;15271109;19;20081;-68
2022/01/24 00:38:01;;;;;;;16.23;8.30;;;;;;;4.01;91.46;103386.38;15285816;19;20097;-68
2022/01/24 00:43:07;;;;;;;18.50;8.43;;;;;;;4.02;91.23;103395.06;15284409;19;20085;-69
2022/01/24 00:58:31;;;;;;;18.98;8.45;;;;;;;3.98;91.47;103391.31;15287895;19;20010;-68
2022/01/24 01:03:33;;;;;;;16.05;7.78;;;;;;;4.05;91.41;103392.72;15283946;19;20082;-69
2022/01/24 01:19:18;;;;;;;17.17;7.95;;;;;;;3.99;90.69;103376.66;15284869;19;20045;-69
2022/01/24 01:24:20;;;;;;;21.23;8.20;;;;;;;3.96;90.51;103378.97;15281015;19;20018;-68
2022/01/24 01:29:28;;;;;;;18.15;7.80;;;;;;;3.96;91.00;103376.38;15282599;19;20095;-69
2022/01/24 02:00:36;;;;;;;21.15;9.02;;;;;;;4.09;88.95;103371.47;15282309;19;20218;-67
2022/01/24 02:05:41;;;;;;;21.48;8.55;;;;;;;4.04;89.22;103376.28;15278281;19;20023;-68
2022/01/24 02:10:43;;;;;;;23.23;8.73;;;;;;;4.04;89.17;103373.69;15276979;19;20067;-68
2022/01/24 02:16:02;;;;;;;18.92;8.00;;;;;;;4.03;89.65;103373.56;15278692;19;20014;-68
2022/01/24 02:21:12;;;;;;;18.67;8.68;;;;;;;4.06;89.67;103366.94;15281062;19;20018;-69
2022/01/24 02:26:18;;;;;;;18.27;8.32;;;;;;;4.01;89.81;103365.63;15279705;19;20691;-68
2022/01/24 02:36:40;;;;;;;21.83;8.93;;;;;;;4.03;89.14;103363.19;15278675;19;20384;-68
2022/01/24 02:52:11;;;;;;;22.92;10.75;;;;;;;4.01;89.49;103365.63;15276528;19;20018;-68
2022/01/24 02:57:13;;;;;;;24.90;10.23;;;;;;;3.99;89.49;103362.00;15275960;19;20010;-68
2022/01/24 03:02:14;;;;;;;23.13;10.35;;;;;;;4.01;89.49;103355.28;15280259;19;20037;-67
2022/01/24 03:07:16;;;;;;;23.80;10.68;;;;;;;3.98;89.75;103354.09;15276945;19;20374;-69
2022/01/24 03:12:38;;;;;;;25.92;11.35;;;;;;;3.99;89.18;103356.81;15276152;19;20094;-69
2022/01/24 03:17:40;;;;;;;30.17;11.32;;;;;;;3.99;89.33;103351.63;15278690;19;20445;-68
2022/01/24 03:22:41;;;;;;;28.83;9.77;;;;;;;3.98;90.24;103343.72;15278018;19;20074;-68
2022/01/24 03:27:43;;;;;;;25.10;10.45;;;;;;;3.96;89.62;103341.00;15278916;19;20311;-69
2022/01/24 03:32:45;;;;;;;23.50;10.20;;;;;;;3.95;90.38;103340.84;15276176;19;20070;-69
2022/01/24 03:37:46;;;;;;;22.48;9.18;;;;;;;3.98;90.64;103339.47;15277957;19;20011;-68
2022/01/24 03:42:48;;;;;;;26.35;10.32;;;;;;;3.96;90.52;103340.09;15275574;19;20589;-69
2022/01/24 03:48:10;;;;;;;21.63;9.70;;;;;;;3.97;90.24;103337.63;15275104;19;20490;-69
2022/01/24 03:53:11;;;;;;;23.92;9.10;;;;;;;3.98;90.30;103334.28;15276272;19;20027;-69
2022/01/24 03:58:13;;;;;;;25.33;9.35;;;;;;;4.09;90.14;103345.53;15277047;19;20070;-69
2022/01/24 04:03:15;;;;;;;28.88;10.63;;;;;;;4.00;90.17;103344.78;15274250;19;20030;-68
2022/01/24 04:08:17;;;;;;;23.13;9.48;;;;;;;4.01;90.13;103342.31;15273168;19;20030;-67
2022/01/24 04:23:28;;;;;;;24.95;9.13;;;;;;;4.02;89.99;103336.34;15289461;19;20015;-67
2022/01/24 04:28:30;;;;;;;18.80;7.95;;;;;;;4.00;89.55;103331.81;15288363;19;20039;-68
2022/01/24 04:33:31;;;;;;;21.88;9.38;;;;;;;3.99;89.96;103336.06;15288268;19;20529;-68
2022/01/24 04:38:33;;;;;;;18.95;7.72;;;;;;;3.99;89.81;103340.34;15288757;19;20014;-67
2022/01/24 04:54:25;;;;;;;23.65;8.95;;;;;;;3.96;89.96;103329.72;15287120;19;20417;-67
2022/01/24 04:59:13;;;;;;;23.92;9.93;;;;;;;4.03;88.94;103321.69;15288769;19;20015;-68
2022/01/24 05:04:15;;;;;;;20.88;8.70;;;;;;;4.01;89.50;103334.53;15285322;19;20011;-68
2022/01/24 05:09:18;;;;;;;24.23;9.77;;;;;;;4.00;89.63;103327.53;15285545;19;20014;-68
2022/01/24 05:25:01;;;;;;;24.65;10.57;;;;;;;3.98;89.67;103329.09;15284518;19;20018;-68
2022/01/24 05:30:04;;;;;;;30.42;11.38;;;;;;;4.06;87.93;103329.72;15283251;19;20023;-68
2022/01/24 05:35:06;;;;;;;31.58;12.38;;;;;;;4.01;88.29;103326.75;15281970;19;20378;-68
2022/01/24 05:40:08;;;;;;;27.20;11.10;;;;;;;4.01;89.18;103326.75;15285132;19;20077;-67
2022/01/24 05:45:10;;;;;;;25.25;10.63;;;;;;;4.00;89.00;103332.69;15281865;19;20026;-68
2022/01/24 05:50:12;;;;;;;27.90;11.55;;;;;;;3.97;88.94;103331.56;15283394;19;20014;-68
2022/01/24 05:55:14;;;;;;;27.65;12.77;;;;;;;4.13;88.01;103325.94;15282422;19;20446;-68
2022/01/24 06:00:19;;;;;;;35.05;13.43;;;;;;;4.02;88.40;103328.56;15285791;19;20014;-66
2022/01/24 06:05:20;;;;;;;33.25;14.20;;;;;;;4.04;88.55;103334.78;15280357;19;20015;-67
2022/01/24 06:10:22;;;;;;;33.95;14.48;;;;;;;4.02;88.03;103338.00;15281312;19;20389;-68
2022/01/24 06:15:27;;;;;;;28.42;13.15;;;;;;;4.02;87.62;103331.16;15280145;19;20018;-68
2022/01/24 06:20:29;;;;;;;30.27;13.25;;;;;;;3.98;88.23;103334.28;15282436;19;20529;-68
2022/01/24 06:25:30;;;;;;;27.33;12.95;;;;;;;3.95;88.94;103331.41;15280655;19;20018;-68
2022/01/24 06:30:32;;;;;;;33.25;13.75;;;;;;;3.93;88.78;103335.53;15279907;19;20070;-67
2022/01/24 06:35:34;;;;;;;35.20;14.10;;;;;;;3.99;88.50;103341.25;15278029;19;20486;-67
2022/01/24 06:40:35;;;;;;;39.20;15.82;;;;;;;4.03;88.85;103348.53;15280699;19;20011;-67
2022/01/24 06:45:37;;;;;;;32.58;13.38;;;;;;;3.98;88.84;103352.41;15278659;19;20031;-66
2022/01/24 06:50:41;;;;;;;38.05;15.13;;;;;;;3.93;89.14;103339.84;15277320;19;20019;-68
2022/01/24 06:55:43;;;;;;;37.35;15.43;;;;;;;3.93;88.48;103343.31;15276441;19;20027;-68
2022/01/24 07:00:45;;;;;;;35.30;15.75;;;;;;;3.93;88.60;103353.69;15278613;19;20089;-66
2022/01/24 07:05:47;;;;;;;38.30;16.60;;;;;;;3.94;88.96;103347.75;15277931;19;20019;-67
2022/01/24 07:10:49;;;;;;;32.67;15.65;;;;;;;3.90;89.27;103358.63;15277349;19;20106;-68
2022/01/24 07:16:00;;;;;;;35.35;15.80;;;;;;;3.97;89.53;103368.75;15275844;19;20019;-68
2022/01/24 07:21:04;;;;;;;39.60;17.25;;;;;;;3.96;89.17;103366.03;15277104;19;20018;-68
2022/01/24 07:26:06;;;;;;;36.95;16.73;;;;;;;3.92;88.76;103363.94;15262406;19;20014;-67
2022/01/24 07:31:08;;;;;;;41.22;17.55;;;;;;;3.92;89.13;103353.56;15275557;19;20027;-68
2022/01/24 07:36:09;;;;;;;36.17;16.58;;;;;;;3.88;89.28;103355.91;15275952;19;20010;-68
2022/01/24 07:41:11;;;;;;;36.85;16.25;;;;;;;3.90;89.08;103356.03;15277599;19;20018;-68
2022/01/24 07:46:13;;;;;;;40.30;16.92;;;;;;;3.94;89.05;103352.94;15272079;19;20074;-68
2022/01/24 07:51:17;;;;;;;45.85;17.80;;;;;;;3.92;89.61;103353.56;15275267;19;20118;-68
2022/01/24 07:56:19;;;;;;;41.00;17.13;;;;;;;3.91;89.33;103357.84;15270875;19;20933;-68
2022/01/24 08:01:21;;;;;;;43.80;18.67;;;;;;;3.90;89.84;103361.22;15276142;19;20077;-67
2022/01/24 08:06:26;;;;;;;46.47;20.05;;;;;;;3.89;89.62;103359.41;15269176;19;20373;-69
2022/01/24 08:11:30;;;;;;;42.63;18.02;;;;;;;3.96;89.50;103366.91;15274166;19;20082;-69
2022/01/24 08:16:34;;;;;;;49.22;20.65;;;;;;;3.93;90.05;103360.56;15255558;19;20019;-69
2022/01/24 08:21:36;;;;;;;48.17;19.60;;;;;;;3.93;90.08;103365.75;15272844;19;20476;-69
2022/01/24 08:26:38;;;;;;;45.45;19.00;;;;;;;3.95;89.96;103372.91;15270011;19;20022;-69
2022/01/24 08:31:47;;;;;;;48.63;19.63;;;;;;;3.92;90.33;103375.22;15270606;19;20090;-69
2022/01/24 08:36:49;;;;;;;50.55;21.27;;;;;;;3.91;90.27;103369.91;15266573;19;20023;-69
2022/01/24 08:46:55;;;;;;;43.72;19.23;;;;;;;3.95;90.50;103367.72;15267162;19;20028;-68
2022/01/24 08:52:00;;;;;;;40.67;16.05;;;;;;;3.97;90.33;103371.34;15270501;19;20014;-68
2022/01/24 08:57:07;;;;;;;48.63;18.50;;;;;;;3.98;89.86;103375.75;15276789;19;20014;-68
2022/01/24 09:02:09;;;;;;;43.85;17.50;;;;;;;3.98;89.63;103355.00;15279177;19;20105;-68
2022/01/24 09:07:11;;;;;;;41.03;17.00;;;;;;;3.98;89.23;103355.00;15282518;19;20377;-68
2022/01/24 09:12:13;;;;;;;43.42;16.92;;;;;;;3.96;89.06;103356.53;15284995;19;20014;-68
2022/01/24 09:17:17;;;;;;;39.83;16.73;;;;;;;3.97;88.31;103353.19;15281789;19;20015;-68
2022/01/24 09:22:19;;;;;;;40.47;15.13;;;;;;;4.00;88.65;103357.72;15285837;19;20018;-69
2022/01/24 09:27:21;;;;;;;42.67;17.80;;;;;;;3.99;88.32;103350.72;15283900;19;20010;-68
2022/01/24 09:32:23;;;;;;;45.35;17.10;;;;;;;4.01;88.74;103344.00;15277520;19;20010;-69
2022/01/24 09:37:25;;;;;;;36.65;15.60;;;;;;;3.97;88.38;103350.59;15272657;19;20011;-69
2022/01/24 09:42:27;;;;;;;38.08;14.63;;;;;;;4.03;88.43;103361.47;15282081;19;20027;-67
2022/01/24 09:47:33;;;;;;;41.20;16.73;;;;;;;4.09;88.58;103353.31;15281537;19;20758;-68
2022/01/24 09:52:39;;;;;;;35.22;14.70;;;;;;;4.15;88.18;103353.84;15280166;19;20089;-68
2022/01/24 09:57:42;;;;;;;33.05;13.48;;;;;;;4.14;87.79;103351.13;15284783;19;20102;-69
2022/01/24 10:02:46;;;;;;;38.13;15.23;;;;;;;4.16;87.79;103370.28;15282416;19;20114;-66
2022/01/24 10:07:53;;;;;;;35.90;14.73;;;;;;;4.20;86.75;103362.94;15281899;19;20021;-66
2022/01/24 10:18:35;;;;;;;31.83;13.60;;;;;;;4.15;86.39;103364.22;15282488;19;20409;-65
2022/01/24 10:23:43;;;;;;;31.73;13.85;;;;;;;4.18;86.74;103360.97;15280427;19;20081;-66
2022/01/24 10:28:46;;;;;;;37.58;15.30;;;;;;;4.17;86.94;103352.28;15281615;19;20018;-66
2022/01/24 10:33:55;;;;;;;36.75;14.18;;;;;;;4.22;85.83;103368.25;15278590;19;20037;-67
2022/01/24 10:39:11;;;;;;;37.78;15.10;;;;;;;4.17;86.14;103365.22;15279428;19;20446;-66
2022/01/24 10:44:26;;;;;;;39.08;15.07;;;;;;;4.17;86.25;103364.34;15275426;19;20018;-66
2022/01/24 10:49:35;;;;;;;30.67;14.43;;;;;;;4.22;86.57;103356.19;15278589;19;20011;-66
2022/01/24 10:54:40;;;;;;;34.75;14.38;;;;;;;4.32;85.97;103360.44;15277349;19;20404;-65
2022/01/24 10:59:42;;;;;;;31.52;14.13;;;;;;;4.30;86.44;103359.41;15278720;19;20805;-70
2022/01/24 11:04:44;;;;;;;32.80;14.32;;;;;;;4.33;86.44;103357.06;15275448;19;20014;-68
2022/01/24 11:09:46;;;;;;;34.40;14.20;;;;;;;4.30;86.37;103353.31;15277344;19;20905;-67
2022/01/24 11:14:48;;;;;;;31.80;13.95;;;;;;;4.39;85.68;103352.38;15276421;19;20090;-66
2022/01/24 11:19:57;;;;;;;30.55;14.55;;;;;;;4.52;85.76;103343.94;15277314;19;20023;-68
2022/01/24 11:25:03;;;;;;;37.10;16.07;;;;;;;4.43;85.40;103343.19;15276680;19;20028;-66
2022/01/24 11:30:14;;;;;;;;;;;;;;;4.37;85.90;103341.00;15277244;19;20021;-69
2022/01/24 11:35:38;;;;;;;32.30;14.70;;;;;;;4.31;85.82;103332.69;15171820;19;2004004;-67
2022/01/24 11:40:47;;;;;;;30.60;14.50;;;;;;;4.45;85.81;103332.94;15274088;19;20011;-67
2022/01/24 11:45:55;;;;;;;35.30;16.57;;;;;;;4.38;85.54;103332.44;15274240;19;20011;-68
2022/01/24 11:51:04;;;;;;;35.88;15.80;;;;;;;4.36;85.60;103336.56;15275377;19;20028;-69
2022/01/24 11:56:31;;;;;;;33.15;15.30;;;;;;;4.42;85.75;103337.06;15274499;19;20505;-68
2022/01/24 12:01:38;;;;;;;36.83;15.95;;;;;;;4.48;85.59;103338.38;15278094;19;20417;-65
2022/01/24 12:07:16;;;;;;;35.55;16.08;;;;;;;4.56;85.87;103321.75;15274977;19;20446;-67
2022/01/24 12:12:48;;;;;;;33.95;16.10;;;;;;;4.56;85.54;103319.16;15272352;19;20019;-65
2022/01/24 12:17:55;;;;;;;36.10;15.48;;;;;;;4.57;85.52;103314.09;15273754;19;20041;-64
2022/01/24 12:23:24;;;;;;;34.78;15.02;;;;;;;4.62;85.90;103303.19;15272677;19;20029;-68
2022/01/24 12:28:42;;;;;;;37.15;15.27;;;;;;;4.67;85.51;103300.19;15272544;19;20014;-68
2022/01/24 12:33:53;;;;;;;35.75;14.65;;;;;;;4.71;85.50;103302.22;15283831;19;20128;-69
2022/01/24 12:38:57;;;;;;;33.80;15.23;;;;;;;4.69;85.70;103295.13;15288418;19;20074;-68
2022/01/24 12:49:07;;;;;;;37.25;16.50;;;;;;;4.65;84.68;103280.06;15270727;19;20361;-68
2022/01/24 12:54:09;;;;;;;32.63;15.02;;;;;;;4.66;84.31;103280.19;15286970;19;20027;-68
2022/01/24 12:59:11;;;;;;;44.45;17.98;;;;;;;4.55;85.23;103270.66;15287366;19;20019;-70
2022/01/24 13:04:13;;;;;;;37.63;16.17;;;;;;;4.62;85.60;103270.34;15283744;19;20097;-68
2022/01/24 13:09:19;;;;;;;38.75;16.33;;;;;;;4.58;85.12;103263.13;15281174;19;20376;-68
2022/01/24 13:14:31;;;;;;;36.75;16.50;;;;;;;4.62;85.16;103264.25;15281404;19;20019;-68
2022/01/24 13:25:07;;;;;;;38.35;16.08;;;;;;;4.58;84.19;103247.53;15279080;19;20031;-67
2022/01/24 13:30:12;;;;;;;37.92;16.65;;;;;;;4.53;84.03;103262.72;15283643;19;20488;-68
2022/01/24 13:35:27;;;;;;;35.70;16.15;;;;;;;4.53;84.37;103254.03;15176213;19;2004223;-67
2022/01/24 13:40:54;;;;;;;34.17;16.27;;;;;;;4.49;84.71;103241.56;15281948;19;20097;-67
2022/01/24 13:45:57;;;;;;;36.17;16.48;;;;;;;4.54;84.46;103248.06;15276572;19;20503;-68
2022/01/24 13:50:59;;;;;;;38.92;15.88;;;;;;;4.58;84.57;103250.13;15269472;19;20106;-68
2022/01/24 13:56:14;;;;;;;32.83;15.80;;;;;;;4.55;83.87;103255.06;15262632;19;20082;-68
2022/01/24 14:01:16;;;;;;;34.00;15.75;;;;;;;4.38;82.68;103253.69;15278832;19;20034;-66
2022/01/24 14:06:18;;;;;;;30.48;14.38;;;;;;;4.46;82.88;103247.44;15273096;19;20382;-68
2022/01/24 14:11:20;;;;;;;33.67;15.13;;;;;;;4.39;83.34;103253.81;15277107;19;20457;-67
2022/01/24 14:16:46;;;;;;;32.85;15.75;;;;;;;4.39;83.98;103260.69;15272423;19;20047;-68
2022/01/24 14:22:09;;;;;;;31.65;14.27;;;;;;;4.39;84.07;103258.09;15275899;19;20474;-68
2022/01/24 14:27:12;;;;;;;35.28;16.67;;;;;;;4.41;83.12;103251.34;15274381;19;20079;-68
2022/01/24 14:32:15;;;;;;;37.95;17.88;;;;;;;4.29;83.45;103251.22;15275286;19;20013;-67
2022/01/24 14:37:19;;;;;;;31.95;15.25;;;;;;;4.32;84.05;103253.19;15276606;19;20506;-66
2022/01/24 14:42:43;;;;;;;36.38;17.42;;;;;;;4.35;83.99;103254.31;15277021;19;20031;-67
2022/01/24 14:47:45;;;;;;;36.67;17.67;;;;;;;4.28;83.88;103257.22;15280049;19;20023;-66
2022/01/24 14:52:46;;;;;;;39.17;19.52;;;;;;;4.26;83.69;103253.56;15273703;19;20074;-66
2022/01/24 14:57:48;;;;;;;40.13;18.20;;;;;;;4.22;83.30;103268.00;15278005;19;20059;-65
2022/01/24 15:02:50;;;;;;;38.70;17.90;;;;;;;4.20;83.28;103269.56;15278444;19;20013;-68
2022/01/24 15:07:52;;;;;;;45.38;18.98;;;;;;;4.16;83.00;103267.50;15242592;19;20070;-68
2022/01/24 15:12:56;;;;;;;45.00;17.75;;;;;;;4.10;83.34;103271.25;15265138;19;20171;-67
2022/01/24 15:28:28;;;;;;;45.70;18.38;;;;;;;4.09;84.21;103277.22;15274783;19;20081;-68
2022/01/24 15:33:30;;;;;;;42.42;18.58;;;;;;;4.03;84.24;103290.56;15273865;19;20094;-68
2022/01/24 15:38:33;;;;;;;41.28;18.63;;;;;;;4.00;83.12;103283.44;15273971;19;20423;-68
2022/01/24 15:43:59;;;;;;;42.75;18.88;;;;;;;4.05;83.73;103289.94;15274380;19;20011;-68
2022/01/24 15:49:00;;;;;;;42.28;19.55;;;;;;;4.02;83.83;103299.13;15273854;19;20102;-67
2022/01/24 15:54:03;;;;;;;39.42;18.42;;;;;;;4.00;83.94;103304.19;15271922;19;20016;-68
2022/01/24 15:59:09;;;;;;;43.35;19.85;;;;;;;3.92;83.95;103299.13;15270190;19;20082;-68
2022/01/24 16:04:11;;;;;;;38.67;19.77;;;;;;;3.93;84.87;103300.94;15277357;19;20114;-68
2022/01/24 16:09:12;;;;;;;44.03;20.33;;;;;;;3.88;84.61;103296.28;15287799;19;20014;-67
2022/01/24 16:14:15;;;;;;;42.85;19.75;;;;;;;3.90;85.16;103293.81;15283258;19;20017;-68
2022/01/24 16:19:18;;;;;;;46.85;20.35;;;;;;;3.89;85.58;103286.84;15288284;19;20375;-68
2022/01/24 16:29:21;;;;;;;47.80;19.98;;;;;;;3.81;85.83;103290.44;15286556;19;20082;-67
2022/01/24 16:34:23;;;;;;;44.28;19.75;;;;;;;3.79;84.88;103294.59;15281139;19;20026;-68
2022/01/24 16:39:31;;;;;;;45.53;20.67;;;;;;;3.70;84.51;103298.22;15286781;19;20082;-68
2022/01/24 16:49:38;;;;;;;46.50;21.05;;;;;;;3.71;84.93;103307.81;15288620;19;20011;-67
2022/01/24 16:54:46;;;;;;;47.92;21.73;;;;;;;3.74;85.16;103303.66;15286498;19;20035;-69
2022/01/24 16:59:49;;;;;;;43.53;21.08;;;;;;;3.75;85.57;103306.38;15288562;19;20017;-68
2022/01/24 17:04:55;;;;;;;50.47;21.77;;;;;;;3.78;85.41;103304.03;15285810;19;21061;-68
2022/01/24 17:09:57;;;;;;;51.28;22.67;;;;;;;3.78;84.91;103297.97;15287786;19;20034;-67
2022/01/24 17:15:04;;;;;;;46.97;20.42;;;;;;;3.69;85.44;103304.19;15284324;19;20031;-69
2022/01/24 17:20:07;;;;;;;54.72;22.13;;;;;;;3.69;84.64;103314.56;15287223;19;20070;-69
2022/01/24 17:25:08;;;;;;;47.58;21.67;;;;;;;3.69;85.31;103311.97;15282220;19;20029;-69
2022/01/24 17:30:11;;;;;;;48.50;22.40;;;;;;;3.63;86.14;103319.19;15285225;19;20014;-69
2022/01/24 17:35:27;;;;;;;46.88;21.58;;;;;;;3.66;85.98;103313.38;15281185;19;20007;-69
2022/01/24 17:40:28;;;;;;;56.92;24.63;;;;;;;3.65;86.47;103314.16;15283814;19;20088;-69
2022/01/24 17:45:30;;;;;;;56.75;23.73;;;;;;;3.66;85.81;103306.53;15281261;19;20091;-68
2022/01/24 17:50:33;;;;;;;54.25;23.55;;;;;;;3.69;85.50;103311.97;15283779;19;20288;-69
2022/01/24 17:55:34;;;;;;;49.38;21.98;;;;;;;3.63;86.59;103303.63;15279208;19;20014;-69
2022/01/24 18:00:36;;;;;;;56.55;24.48;;;;;;;3.59;86.36;103321.38;15284071;19;20094;-67
2022/01/24 18:05:40;;;;;;;51.50;23.30;;;;;;;3.61;86.45;103315.56;15279342;19;20014;-68
2022/01/24 18:10:43;;;;;;;51.67;22.33;;;;;;;3.61;86.48;103312.97;15282126;19;20464;-69
2022/01/24 18:15:46;;;;;;;54.20;24.38;;;;;;;3.57;86.71;103310.88;15280125;19;20085;-69
2022/01/24 18:20:47;;;;;;;59.83;25.25;;;;;;;3.56;86.55;103316.88;15281500;19;20029;-69
2022/01/24 18:25:50;;;;;;;58.55;25.58;;;;;;;3.52;86.39;103315.69;15278226;19;20037;-69
2022/01/24 18:30:51;;;;;;;57.10;24.83;;;;;;;3.57;86.72;103307.41;15271894;19;20089;-69
2022/01/24 18:35:55;;;;;;;56.55;24.48;;;;;;;3.46;85.52;103309.06;15278766;19;20891;-68
2022/01/24 18:40:58;;;;;;;68.95;27.35;;;;;;;3.42;84.87;103312.16;15281522;19;20014;-69
2022/01/24 18:46:01;;;;;;;60.83;25.58;;;;;;;3.46;84.41;103303.91;15261662;19;20095;-70
2022/01/24 18:51:03;;;;;;;55.33;25.20;;;;;;;3.47;84.02;103303.13;15268457;19;20010;-69
2022/01/24 18:56:05;;;;;;;55.75;21.92;;;;;;;3.45;83.89;103302.06;15258275;19;20543;-69
2022/01/24 19:01:07;;;;;;;59.10;25.02;;;;;;;3.41;84.14;103311.28;15259842;19;20500;-69
2022/01/24 19:06:09;;;;;;;58.10;23.80;;;;;;;3.50;84.38;103306.88;15269440;19;20010;-69
2022/01/24 19:11:11;;;;;;;54.40;23.30;;;;;;;3.44;84.56;103315.78;15275132;19;20605;-69
2022/01/24 19:16:13;;;;;;;58.88;25.50;;;;;;;3.42;84.20;103314.75;15268213;19;20440;-68
2022/01/24 19:26:55;;;;;;;54.50;22.67;;;;;;;3.39;84.75;103319.66;15264618;19;20029;-69
2022/01/24 19:31:56;;;;;;;66.65;24.50;;;;;;;3.32;85.01;103326.91;15267511;19;20082;-69
2022/01/24 19:36:58;;;;;;;60.72;24.50;;;;;;;3.39;85.01;103323.16;15270513;19;20022;-69
2022/01/24 19:42:00;;;;;;;55.60;24.50;;;;;;;3.31;85.33;103331.97;15276312;19;20006;-69
2022/01/24 19:47:03;;;;;;;61.25;25.65;;;;;;;3.33;85.25;103328.75;15273191;19;20018;-69
2022/01/24 19:52:07;;;;;;;62.05;26.63;;;;;;;3.29;84.94;103337.00;15271877;19;20022;-69
2022/01/24 19:57:14;;;;;;;61.47;25.52;;;;;;;3.39;85.17;103327.44;15271936;19;20490;-67
2022/01/24 20:02:16;;;;;;;62.83;25.77;;;;;;;3.27;85.59;103327.28;15276353;19;20035;-68
2022/01/24 20:07:19;;;;;;;64.13;27.40;;;;;;;3.28;85.59;103324.81;15271366;19;20018;-68
2022/01/24 20:12:20;;;;;;;59.33;24.98;;;;;;;3.28;85.96;103323.94;15273876;19;20017;-67
2022/01/24 20:17:22;;;;;;;61.55;25.70;;;;;;;3.28;85.69;103326.50;15272825;19;20038;-68
2022/01/24 20:22:24;;;;;;;70.80;27.38;;;;;;;3.25;86.13;103324.56;15272717;19;20378;-68
2022/01/24 20:27:26;;;;;;;64.18;28.35;;;;;;;3.18;84.59;103315.34;15271624;19;20015;-68
2022/01/24 20:32:28;;;;;;;62.05;26.13;;;;;;;3.20;85.76;103325.84;15272964;19;20074;-69
2022/01/24 20:37:33;;;;;;;73.35;29.17;;;;;;;3.27;85.11;103319.50;15271591;19;20073;-69
2022/01/24 20:42:36;;;;;;;73.60;29.77;;;;;;;3.19;85.33;103322.31;15271089;19;20070;-69
2022/01/24 20:47:38;;;;;;;70.60;28.20;;;;;;;3.18;85.70;103322.19;15270027;19;20075;-68
2022/01/24 20:52:42;;;;;;;73.97;28.83;;;;;;;3.18;85.81;103324.78;15279890;19;20102;-68
2022/01/24 20:57:44;;;;;;;65.45;26.60;;;;;;;3.18;86.18;103322.19;15286345;19;20415;-69
2022/01/24 21:02:47;;;;;;;68.78;27.60;;;;;;;3.17;86.69;103333.34;15284933;19;20031;-68
2022/01/24 21:07:49;;;;;;;74.53;27.77;;;;;;;3.12;85.54;103321.66;15285646;19;20018;-68
2022/01/24 21:12:55;;;;;;;76.78;28.10;;;;;;;3.12;86.24;103337.19;15285177;19;20028;-69
2022/01/24 21:17:56;;;;;;;78.72;28.33;;;;;;;3.11;85.69;103331.13;15283779;19;20082;-69
2022/01/24 21:22:58;;;;;;;72.28;28.95;;;;;;;3.12;86.00;103322.59;15281547;19;20014;-68
2022/01/24 21:27:59;;;;;;;74.60;28.58;;;;;;;3.17;85.95;103331.66;15285065;19;20082;-68
2022/01/24 21:33:01;;;;;;;71.93;27.98;;;;;;;3.13;86.53;103323.50;15279877;19;20039;-68
2022/01/24 21:38:05;;;;;;;77.60;28.52;;;;;;;3.10;86.11;103321.53;15285524;19;20403;-70
2022/01/24 21:43:06;;;;;;;70.60;28.23;;;;;;;3.09;86.46;103318.81;15281418;19;20010;-68
2022/01/24 21:48:09;;;;;;;73.88;27.73;;;;;;;3.06;86.70;103315.94;15285342;19;20418;-68
2022/01/24 21:53:11;;;;;;;81.97;29.45;;;;;;;3.04;86.79;103308.03;15281398;19;20022;-68
2022/01/24 21:58:13;;;;;;;79.57;30.58;;;;;;;3.05;86.98;103308.94;15283757;19;20019;-68
2022/01/24 22:03:15;;;;;;;72.95;26.45;;;;;;;2.99;87.43;103309.34;15282776;19;20081;-69
2022/01/24 22:13:19;;;;;;;76.90;28.70;;;;;;;2.99;87.99;103323.16;15278403;19;20062;-68
2022/01/24 22:18:20;;;;;;;86.75;30.42;;;;;;;2.99;87.51;103314.50;15281692;19;20015;-69
2022/01/24 22:23:32;;;;;;;73.85;28.45;;;;;;;3.00;88.03;103314.66;15280402;19;20419;-68
2022/01/24 22:28:35;;;;;;;76.45;28.45;;;;;;;3.00;87.83;103319.81;15282481;19;20034;-68
2022/01/24 22:33:38;;;;;;;82.22;30.33;;;;;;;2.91;87.46;103310.31;15277732;19;20077;-68
2022/01/24 22:38:40;;;;;;;69.80;27.63;;;;;;;2.97;87.94;103321.22;15281298;19;20074;-68
2022/01/24 22:43:46;;;;;;;72.95;26.80;;;;;;;2.96;87.80;103315.13;15279223;19;20098;-68
2022/01/24 22:48:50;;;;;;;79.10;30.88;;;;;;;2.87;87.88;103310.81;15280077;19;20028;-68
2022/01/24 22:53:52;;;;;;;74.00;29.45;;;;;;;2.89;88.13;103324.81;15276087;19;20296;-70
2022/01/24 22:58:54;;;;;;;80.57;28.25;;;;;;;2.94;87.97;103321.88;15280289;19;20018;-69
2022/01/24 23:03:56;;;;;;;73.95;29.00;;;;;;;2.91;88.38;103334.53;15278648;19;20077;-69
2022/01/24 23:09:15;;;;;;;77.43;29.45;;;;;;;2.92;88.22;103323.41;15279961;19;20536;-68
2022/01/24 23:19:36;;;;;;;80.45;31.05;;;;;;;2.88;88.68;103312.63;15279710;19;20027;-68
2022/01/24 23:24:43;;;;;;;81.72;29.58;;;;;;;2.81;88.50;103312.09;15275762;19;20028;-68
2022/01/24 23:29:49;;;;;;;87.30;31.38;;;;;;;2.85;88.25;103307.19;15278253;19;20114;-68
2022/01/24 23:40:43;;;;;;;85.38;29.13;;;;;;;2.73;88.70;103299.25;15277776;19;20023;-69
2022/01/24 23:45:45;;;;;;;79.93;27.80;;;;;;;2.73;88.96;103299.25;15273652;19;20724;-69
2022/01/24 23:50:46;;;;;;;82.88;31.88;;;;;;;2.72;88.74;103293.16;15278636;19;20011;-68
2022/01/24 23:55:48;;;;;;;77.65;28.27;;;;;;;2.77;88.95;103298.75;15274006;19;20102;-69
